createdAt,value
2017-01-17T00:00:20.042Z,-2.76
2017-01-17T00:01:20.572Z,-2.66
2017-01-17T00:02:20.201Z,-2.6
2017-01-17T00:03:20.354Z,-2.69
2017-01-17T00:04:19.906Z,-2.63
2017-01-17T00:05:19.402Z,-2.69
2017-01-17T00:06:19.958Z,-2.71
2017-01-17T00:07:20.084Z,-2.74
2017-01-17T00:08:19.976Z,-2.8
2017-01-17T00:09:19.731Z,-2.8
2017-01-17T00:10:20.298Z,-2.78
2017-01-17T00:11:19.533Z,-2.69
2017-01-17T00:12:19.944Z,-2.71
2017-01-17T00:13:20.038Z,-2.76
2017-01-17T00:14:19.519Z,-2.73
2017-01-17T00:15:20.067Z,-2.74
2017-01-17T00:16:20.003Z,-2.66
2017-01-17T00:17:20.259Z,-2.69
2017-01-17T00:18:20.397Z,-2.7
2017-01-17T00:19:20.460Z,-2.76
2017-01-17T00:20:19.813Z,-2.7
2017-01-17T00:21:20.003Z,-2.65
2017-01-17T00:22:20.230Z,-2.74
2017-01-17T00:23:21.420Z,-2.7
2017-01-17T00:24:20.565Z,-2.69
2017-01-17T00:25:20.313Z,-2.66
2017-01-17T00:26:20.441Z,-2.77
2017-01-17T00:27:19.558Z,-2.69
2017-01-17T00:28:19.538Z,-2.62
2017-01-17T00:29:20.164Z,-2.77
2017-01-17T00:30:19.827Z,-2.73
2017-01-17T00:31:19.918Z,-2.7
2017-01-17T00:32:20.424Z,-2.65
2017-01-17T00:33:19.520Z,-2.58
2017-01-17T00:34:20.232Z,-2.6
2017-01-17T00:35:21.181Z,-2.56
2017-01-17T00:36:20.281Z,-2.62
2017-01-17T00:37:20.348Z,-2.6
2017-01-17T00:38:20.431Z,-2.59
2017-01-17T00:39:20.396Z,-2.63
2017-01-17T00:40:19.816Z,-2.63
2017-01-17T00:41:20.783Z,-2.6
2017-01-17T00:42:19.784Z,-2.63
2017-01-17T00:43:20.530Z,-2.58
2017-01-17T00:44:21.111Z,-2.6
2017-01-17T00:45:20.586Z,-2.62
2017-01-17T00:46:20.084Z,-2.6
2017-01-17T00:47:20.752Z,-2.69
2017-01-17T00:48:20.137Z,-2.69
2017-01-17T00:49:20.593Z,-2.66
2017-01-17T00:50:20.426Z,-2.73
2017-01-17T00:51:21.314Z,-2.63
2017-01-17T00:52:21.079Z,-2.62
2017-01-17T00:53:20.321Z,-2.56
2017-01-17T00:54:20.078Z,-2.59
2017-01-17T00:55:20.234Z,-2.62
2017-01-17T00:56:20.277Z,-2.53
2017-01-17T00:57:20.263Z,-2.62
2017-01-17T00:58:20.527Z,-2.59
2017-01-17T00:59:19.919Z,-2.53
2017-01-17T01:00:20.596Z,-2.5
2017-01-17T01:01:20.649Z,-2.56
2017-01-17T01:02:21.602Z,-2.56
2017-01-17T01:03:21.774Z,-2.59
2017-01-17T01:04:20.402Z,-2.48
2017-01-17T01:05:21.143Z,-2.56
2017-01-17T01:06:20.250Z,-2.5
2017-01-17T01:07:20.283Z,-2.45
2017-01-17T01:08:20.507Z,-2.62
2017-01-17T01:09:20.404Z,-2.55
2017-01-17T01:10:20.428Z,-2.5
2017-01-17T01:11:20.551Z,-2.58
2017-01-17T01:12:20.587Z,-2.55
2017-01-17T01:13:20.412Z,-2.6
2017-01-17T01:14:20.408Z,-2.73
2017-01-17T01:15:20.594Z,-2.71
2017-01-17T01:16:20.852Z,-2.71
2017-01-17T01:17:21.226Z,-2.77
2017-01-17T01:18:21.137Z,-2.71
2017-01-17T01:19:20.111Z,-2.78
2017-01-17T01:20:21.104Z,-2.8
2017-01-17T01:21:20.908Z,-2.76
2017-01-17T01:22:21.277Z,-2.88
2017-01-17T01:23:20.891Z,-2.8
2017-01-17T01:24:21.264Z,-2.83
2017-01-17T01:25:21.541Z,-2.78
2017-01-17T01:26:20.725Z,-2.89
2017-01-17T01:27:20.817Z,-2.94
2017-01-17T01:28:21.222Z,-2.99
2017-01-17T01:29:20.337Z,-2.92
2017-01-17T01:30:21.876Z,-2.91
2017-01-17T01:31:20.892Z,-2.97
2017-01-17T01:32:20.768Z,-3.13
2017-01-17T01:33:21.133Z,-3.1
2017-01-17T01:34:20.843Z,-3.13
2017-01-17T01:35:20.762Z,-3.2
2017-01-17T01:36:20.966Z,-3.28
2017-01-17T01:37:21.128Z,-3.25
2017-01-17T01:38:20.940Z,-3.28
2017-01-17T01:39:21.380Z,-3.38
2017-01-17T01:40:21.650Z,-3.48
2017-01-17T01:41:21.353Z,-3.59
2017-01-17T01:42:21.557Z,-3.64
2017-01-17T01:43:21.221Z,-3.59
2017-01-17T01:44:21.022Z,-3.63
2017-01-17T01:45:21.042Z,-3.7
2017-01-17T01:46:21.706Z,-3.69
2017-01-17T01:47:20.874Z,-3.64
2017-01-17T01:48:21.386Z,-3.64
2017-01-17T01:49:20.829Z,-3.7
2017-01-17T01:50:21.003Z,-3.8
2017-01-17T01:51:20.589Z,-3.78
2017-01-17T01:52:21.407Z,-3.72
2017-01-17T01:53:21.211Z,-3.61
2017-01-17T01:54:21.626Z,-3.66
2017-01-17T01:55:21.007Z,-3.64
2017-01-17T01:56:21.338Z,-3.64
2017-01-17T01:57:21.208Z,-3.7
2017-01-17T01:58:20.995Z,-3.83
2017-01-17T01:59:21.588Z,-3.82
2017-01-17T02:00:21.407Z,-3.95
2017-01-17T02:01:21.580Z,-3.99
2017-01-17T02:02:21.454Z,-4.03
2017-01-17T02:03:21.352Z,-4.02
2017-01-17T02:04:20.972Z,-4.09
2017-01-17T02:05:22.334Z,-4.21
2017-01-17T02:06:21.388Z,-4.28
2017-01-17T02:07:20.517Z,-4.21
2017-01-17T02:08:21.689Z,-4.1
2017-01-17T02:09:20.833Z,-4.14
2017-01-17T02:10:21.090Z,-4.1
2017-01-17T02:11:21.412Z,-4.13
2017-01-17T02:12:20.715Z,-4.25
2017-01-17T02:13:20.803Z,-4.27
2017-01-17T02:14:21.998Z,-4.28
2017-01-17T02:15:21.467Z,-4.25
2017-01-17T02:16:21.783Z,-4.28
2017-01-17T02:17:21.744Z,-4.31
2017-01-17T02:18:20.775Z,-4.41
2017-01-17T02:19:21.123Z,-4.39
2017-01-17T02:20:21.461Z,-4.45
2017-01-17T02:21:21.839Z,-4.52
2017-01-17T02:22:21.307Z,-4.7
2017-01-17T02:23:20.983Z,-4.82
2017-01-17T02:24:22.480Z,-4.75
2017-01-17T02:25:22.107Z,-4.71
2017-01-17T02:26:21.706Z,-4.7
2017-01-17T02:27:21.184Z,-4.77
2017-01-17T02:28:21.101Z,-4.6
2017-01-17T02:29:22.618Z,-4.64
2017-01-17T02:30:21.229Z,-4.53
2017-01-17T02:31:21.591Z,-4.53
2017-01-17T02:32:21.314Z,-4.55
2017-01-17T02:33:21.408Z,-4.42
2017-01-17T02:34:21.843Z,-4.46
2017-01-17T02:35:21.498Z,-4.52
2017-01-17T02:36:21.329Z,-4.53
2017-01-17T02:37:21.260Z,-4.6
2017-01-17T02:38:21.841Z,-4.66
2017-01-17T02:39:21.915Z,-4.63
2017-01-17T02:40:21.949Z,-4.67
2017-01-17T02:41:21.538Z,-4.7
2017-01-17T02:42:21.369Z,-4.78
2017-01-17T02:43:21.316Z,-4.92
2017-01-17T02:44:22.023Z,-4.95
2017-01-17T02:45:21.678Z,-5.03
2017-01-17T02:46:21.418Z,-4.88
2017-01-17T02:47:21.250Z,-4.88
2017-01-17T02:48:22.045Z,-5.03
2017-01-17T02:49:21.960Z,-4.96
2017-01-17T02:50:21.853Z,-5.03
2017-01-17T02:51:21.204Z,-5.05
2017-01-17T02:52:21.573Z,-5
2017-01-17T02:53:21.915Z,-5.03
2017-01-17T02:54:21.994Z,-5.22
2017-01-17T02:55:21.629Z,-4.99
2017-01-17T02:56:22.007Z,-5.13
2017-01-17T02:57:21.352Z,-5.13
2017-01-17T02:58:21.715Z,-5.02
2017-01-17T02:59:21.404Z,-4.96
2017-01-17T03:00:21.750Z,-5.17
2017-01-17T03:01:22.016Z,-5.08
2017-01-17T03:02:21.967Z,-5.1
2017-01-17T03:03:21.293Z,-5.03
2017-01-17T03:04:21.644Z,-5.02
2017-01-17T03:05:21.764Z,-4.96
2017-01-17T03:06:21.615Z,-4.91
2017-01-17T03:07:22.234Z,-5.02
2017-01-17T03:08:22.314Z,-4.85
2017-01-17T03:09:22.709Z,-4.71
2017-01-17T03:10:22.281Z,-4.59
2017-01-17T03:11:21.417Z,-4.67
2017-01-17T03:12:22.045Z,-4.69
2017-01-17T03:13:21.924Z,-4.57
2017-01-17T03:14:22.277Z,-4.52
2017-01-17T03:15:22.667Z,-4.52
2017-01-17T03:16:21.812Z,-4.55
2017-01-17T03:17:21.893Z,-4.61
2017-01-17T03:18:21.790Z,-4.69
2017-01-17T03:19:21.924Z,-4.53
2017-01-17T03:20:22.836Z,-4.53
2017-01-17T03:21:21.351Z,-4.7
2017-01-17T03:22:21.622Z,-4.55
2017-01-17T03:23:21.907Z,-4.53
2017-01-17T03:24:21.603Z,-4.53
2017-01-17T03:25:22.242Z,-4.43
2017-01-17T03:26:21.277Z,-4.43
2017-01-17T03:27:21.922Z,-4.17
2017-01-17T03:28:21.949Z,-3.89
2017-01-17T03:29:22.580Z,-3.82
2017-01-17T03:30:22.114Z,-3.59
2017-01-17T03:31:22.764Z,-3.61
2017-01-17T03:32:21.962Z,-3.48
2017-01-17T03:33:21.715Z,-3.34
2017-01-17T03:34:22.744Z,-3.13
2017-01-17T03:35:21.509Z,-3.13
2017-01-17T03:36:22.180Z,-3.1
2017-01-17T03:37:21.993Z,-3.1
2017-01-17T03:38:21.853Z,-3.06
2017-01-17T03:39:22.096Z,-3.04
2017-01-17T03:40:21.694Z,-3.13
2017-01-17T03:41:22.681Z,-3.02
2017-01-17T03:42:21.757Z,-2.91
2017-01-17T03:43:22.149Z,-2.91
2017-01-17T03:44:23.159Z,-2.94
2017-01-17T03:45:22.228Z,-2.92
2017-01-17T03:46:22.006Z,-2.95
2017-01-17T03:47:22.781Z,-2.98
2017-01-17T03:48:22.221Z,-2.89
2017-01-17T03:49:22.982Z,-2.92
2017-01-17T03:50:22.454Z,-2.95
2017-01-17T03:51:22.182Z,-2.95
2017-01-17T03:52:22.460Z,-2.94
2017-01-17T03:53:22.099Z,-2.92
2017-01-17T03:54:22.890Z,-2.89
2017-01-17T03:55:22.341Z,-2.91
2017-01-17T03:56:22.113Z,-2.88
2017-01-17T03:57:22.420Z,-2.92
2017-01-17T03:58:22.117Z,-2.77
2017-01-17T03:59:22.010Z,-2.86
2017-01-17T04:00:23.420Z,-2.88
2017-01-17T04:01:22.975Z,-2.78
2017-01-17T04:02:22.212Z,-2.74
2017-01-17T04:03:23.737Z,-2.84
2017-01-17T04:04:23.036Z,-2.8
2017-01-17T04:05:21.940Z,-2.81
2017-01-17T04:06:22.996Z,-2.77
2017-01-17T04:07:22.211Z,-2.76
2017-01-17T04:08:22.218Z,-2.77
2017-01-17T04:09:21.811Z,-2.76
2017-01-17T04:10:22.541Z,-2.8
2017-01-17T04:11:21.931Z,-2.7
2017-01-17T04:12:22.502Z,-2.76
2017-01-17T04:13:22.895Z,-2.81
2017-01-17T04:14:22.520Z,-2.78
2017-01-17T04:15:23.468Z,-2.78
2017-01-17T04:16:22.385Z,-2.74
2017-01-17T04:17:22.738Z,-2.81
2017-01-17T04:18:22.663Z,-2.86
2017-01-17T04:19:21.996Z,-2.8
2017-01-17T04:20:22.118Z,-2.83
2017-01-17T04:21:22.833Z,-2.78
2017-01-17T04:22:22.958Z,-2.76
2017-01-17T04:23:22.027Z,-2.73
2017-01-17T04:24:22.327Z,-2.69
2017-01-17T04:25:22.672Z,-2.63
2017-01-17T04:26:22.507Z,-2.6
2017-01-17T04:27:22.506Z,-2.56
2017-01-17T04:28:22.759Z,-2.6
2017-01-17T04:29:21.993Z,-2.58
2017-01-17T04:30:22.338Z,-2.59
2017-01-17T04:31:22.754Z,-2.56
2017-01-17T04:32:22.553Z,-2.6
2017-01-17T04:33:23.084Z,-2.62
2017-01-17T04:34:22.822Z,-2.63
2017-01-17T04:35:22.382Z,-2.6
2017-01-17T04:36:22.638Z,-2.59
2017-01-17T04:37:23.174Z,-2.58
2017-01-17T04:38:22.781Z,-2.52
2017-01-17T04:39:22.902Z,-2.5
2017-01-17T04:40:22.603Z,-2.52
2017-01-17T04:41:23.119Z,-2.48
2017-01-17T04:42:22.789Z,-2.45
2017-01-17T04:43:22.425Z,-2.47
2017-01-17T04:44:23.317Z,-2.42
2017-01-17T04:45:22.966Z,-2.44
2017-01-17T04:46:22.375Z,-2.5
2017-01-17T04:47:23.106Z,-2.48
2017-01-17T04:48:22.700Z,-2.5
2017-01-17T04:49:22.734Z,-2.52
2017-01-17T04:50:23.329Z,-2.52
2017-01-17T04:51:22.495Z,-2.52
2017-01-17T04:52:23.775Z,-2.47
2017-01-17T04:53:22.940Z,-2.44
2017-01-17T04:54:22.604Z,-2.34
2017-01-17T04:55:22.852Z,-2.34
2017-01-17T04:56:23.627Z,-2.3
2017-01-17T04:57:22.619Z,-2.21
2017-01-17T04:58:23.084Z,-2.16
2017-01-17T04:59:23.562Z,-2.18
2017-01-17T05:00:22.694Z,-2.1
2017-01-17T05:01:23.108Z,-2.15
2017-01-17T05:02:22.768Z,-2.16
2017-01-17T05:03:23.130Z,-2.07
2017-01-17T05:04:23.383Z,-2.05
2017-01-17T05:05:23.247Z,-2.05
2017-01-17T05:06:23.789Z,-1.98
2017-01-17T05:07:22.780Z,-1.98
2017-01-17T05:08:22.949Z,-2.02
2017-01-17T05:09:24.494Z,-1.92
2017-01-17T05:10:23.502Z,-2
2017-01-17T05:11:23.694Z,-1.94
2017-01-17T05:12:22.870Z,-1.92
2017-01-17T05:13:23.233Z,-1.89
2017-01-17T05:14:23.284Z,-1.92
2017-01-17T05:15:23.416Z,-1.84
2017-01-17T05:16:23.206Z,-1.87
2017-01-17T05:17:23.377Z,-1.89
2017-01-17T05:18:24.130Z,-1.84
2017-01-17T05:19:24.592Z,-1.84
2017-01-17T05:20:23.776Z,-1.87
2017-01-17T05:21:23.521Z,-1.86
2017-01-17T05:22:23.479Z,-1.72
2017-01-17T05:23:24.376Z,-1.76
2017-01-17T05:24:24.434Z,-1.76
2017-01-17T05:25:23.665Z,-1.79
2017-01-17T05:26:23.319Z,-1.77
2017-01-17T05:27:23.815Z,-1.84
2017-01-17T05:28:23.696Z,-1.72
2017-01-17T05:29:23.949Z,-1.74
2017-01-17T05:30:23.211Z,-1.76
2017-01-17T05:31:23.249Z,-1.68
2017-01-17T05:32:23.170Z,-1.82
2017-01-17T05:33:24.094Z,-1.71
2017-01-17T05:34:24.222Z,-1.74
2017-01-17T05:35:23.162Z,-1.84
2017-01-17T05:36:23.660Z,-1.76
2017-01-17T05:37:23.635Z,-1.83
2017-01-17T05:38:23.535Z,-1.74
2017-01-17T05:39:24.394Z,-1.8
2017-01-17T05:40:23.349Z,-1.76
2017-01-17T05:41:24.132Z,-1.74
2017-01-17T05:42:23.888Z,-1.71
2017-01-17T05:43:23.144Z,-1.76
2017-01-17T05:44:23.560Z,-1.76
2017-01-17T05:45:23.485Z,-1.72
2017-01-17T05:46:24.510Z,-1.68
2017-01-17T05:47:24.551Z,-1.69
2017-01-17T05:48:24.037Z,-1.66
2017-01-17T05:49:23.302Z,-1.68
2017-01-17T05:50:23.467Z,-1.77
2017-01-17T05:51:23.110Z,-1.74
2017-01-17T05:52:23.557Z,-1.69
2017-01-17T05:53:23.493Z,-1.68
2017-01-17T05:54:23.669Z,-1.74
2017-01-17T05:55:24.199Z,-1.65
2017-01-17T05:56:22.954Z,-1.74
2017-01-17T05:57:23.177Z,-1.74
2017-01-17T05:58:23.404Z,-1.68
2017-01-17T05:59:23.397Z,-1.69
2017-01-17T06:00:24.234Z,-1.71
2017-01-17T06:01:23.518Z,-1.74
2017-01-17T06:02:24.242Z,-1.76
2017-01-17T06:03:23.475Z,-1.62
2017-01-17T06:04:25.363Z,-1.62
2017-01-17T06:05:24.283Z,-1.68
2017-01-17T06:06:24.232Z,-1.65
2017-01-17T06:07:24.028Z,-1.59
2017-01-17T06:08:23.995Z,-1.62
2017-01-17T06:09:24.272Z,-1.62
2017-01-17T06:10:23.682Z,-1.72
2017-01-17T06:11:23.467Z,-1.59
2017-01-17T06:12:23.361Z,-1.61
2017-01-17T06:13:23.726Z,-1.59
2017-01-17T06:14:23.913Z,-1.61
2017-01-17T06:15:24.327Z,-1.62
2017-01-17T06:16:23.805Z,-1.58
2017-01-17T06:17:24.359Z,-1.65
2017-01-17T06:18:24.957Z,-1.59
2017-01-17T06:19:23.438Z,-1.62
2017-01-17T06:20:23.742Z,-1.74
2017-01-17T06:21:23.750Z,-1.65
2017-01-17T06:22:24.737Z,-1.71
2017-01-17T06:23:23.886Z,-1.56
2017-01-17T06:24:24.073Z,-1.69
2017-01-17T06:25:24.074Z,-1.72
2017-01-17T06:26:24.046Z,-1.72
2017-01-17T06:27:24.190Z,-1.77
2017-01-17T06:28:24.059Z,-1.68
2017-01-17T06:29:23.596Z,-1.71
2017-01-17T06:30:23.659Z,-1.61
2017-01-17T06:31:24.370Z,-1.68
2017-01-17T06:32:24.069Z,-1.64
2017-01-17T06:33:24.918Z,-1.59
2017-01-17T06:34:26.398Z,-1.62
2017-01-17T06:35:23.930Z,-1.62
2017-01-17T06:36:24.006Z,-1.62
2017-01-17T06:37:23.649Z,-1.56
2017-01-17T06:38:23.533Z,-1.62
2017-01-17T06:39:24.149Z,-1.61
2017-01-17T06:40:24.173Z,-1.62
2017-01-17T06:41:23.519Z,-1.61
2017-01-17T06:42:23.848Z,-1.64
2017-01-17T06:43:24.120Z,-1.61
2017-01-17T06:44:24.616Z,-1.61
2017-01-17T06:45:24.404Z,-1.62
2017-01-17T06:46:24.663Z,-1.56
2017-01-17T06:47:23.883Z,-1.58
2017-01-17T06:48:24.005Z,-1.62
2017-01-17T06:49:24.399Z,-1.65
2017-01-17T06:50:24.796Z,-1.71
2017-01-17T06:51:24.577Z,-1.61
2017-01-17T06:52:23.835Z,-1.56
2017-01-17T06:53:23.748Z,-1.62
2017-01-17T06:54:24.074Z,-1.65
2017-01-17T06:55:24.990Z,-1.65
2017-01-17T06:56:24.416Z,-1.62
2017-01-17T06:57:23.706Z,-1.58
2017-01-17T06:58:24.728Z,-1.61
2017-01-17T06:59:24.298Z,-1.61
2017-01-17T07:00:23.802Z,-1.62
2017-01-17T07:01:24.294Z,-1.61
2017-01-17T07:02:24.249Z,-1.59
2017-01-17T07:03:24.841Z,-1.58
2017-01-17T07:04:23.716Z,-1.59
2017-01-17T07:05:24.907Z,-1.59
2017-01-17T07:06:24.647Z,-1.58
2017-01-17T07:07:24.242Z,-1.54
2017-01-17T07:08:25.144Z,-1.47
2017-01-17T07:09:24.267Z,-1.61
2017-01-17T07:10:24.396Z,-1.54
2017-01-17T07:11:24.301Z,-1.51
2017-01-17T07:12:24.535Z,-1.54
2017-01-17T07:13:24.755Z,-1.54
2017-01-17T07:14:23.678Z,-1.56
2017-01-17T07:15:24.504Z,-1.51
2017-01-17T07:16:24.306Z,-1.56
2017-01-17T07:17:25.286Z,-1.53
2017-01-17T07:18:24.128Z,-1.56
2017-01-17T07:19:24.280Z,-1.58
2017-01-17T07:20:24.404Z,-1.56
2017-01-17T07:21:24.120Z,-1.54
2017-01-17T07:22:24.122Z,-1.59
2017-01-17T07:23:24.626Z,-1.58
2017-01-17T07:24:24.196Z,-1.59
2017-01-17T07:25:24.227Z,-1.53
2017-01-17T07:26:24.644Z,-1.61
2017-01-17T07:27:24.624Z,-1.53
2017-01-17T07:28:25.136Z,-1.54
2017-01-17T07:29:24.652Z,-1.48
2017-01-17T07:30:24.971Z,-1.53
2017-01-17T07:31:24.425Z,-1.47
2017-01-17T07:32:25.511Z,-1.47
2017-01-17T07:33:24.478Z,-1.44
2017-01-17T07:34:24.634Z,-1.44
2017-01-17T07:35:23.635Z,-1.4
2017-01-17T07:36:23.812Z,-1.37
2017-01-17T07:37:23.961Z,-1.38
2017-01-17T07:38:24.249Z,-1.37
2017-01-17T07:39:24.018Z,-1.3
2017-01-17T07:40:24.045Z,-1.3
2017-01-17T07:41:23.912Z,-1.41
2017-01-17T07:42:24.032Z,-1.27
2017-01-17T07:43:24.416Z,-1.3
2017-01-17T07:44:24.048Z,-1.3
2017-01-17T07:45:24.345Z,-1.3
2017-01-17T07:46:24.857Z,-1.38
2017-01-17T07:47:25.282Z,-1.27
2017-01-17T07:48:25.998Z,-1.25
2017-01-17T07:49:25.007Z,-1.3
2017-01-17T07:50:24.505Z,-1.32
2017-01-17T07:51:25.173Z,-1.27
2017-01-17T07:52:24.761Z,-1.26
2017-01-17T07:53:24.121Z,-1.29
2017-01-17T07:54:25.155Z,-1.25
2017-01-17T07:55:24.782Z,-1.25
2017-01-17T07:56:24.266Z,-1.15
2017-01-17T07:57:24.913Z,-1.33
2017-01-17T07:58:25.668Z,-1.23
2017-01-17T07:59:25.241Z,-1.23
2017-01-17T08:00:24.702Z,-1.19
2017-01-17T08:01:25.886Z,-1.2
2017-01-17T08:02:25.799Z,-1.17
2017-01-17T08:03:24.827Z,-1.22
2017-01-17T08:04:24.937Z,-1.2
2017-01-17T08:05:24.741Z,-1.22
2017-01-17T08:06:24.400Z,-1.19
2017-01-17T08:07:25.103Z,-1.17
2017-01-17T08:08:25.172Z,-1.15
2017-01-17T08:09:25.296Z,-1.05
2017-01-17T08:10:25.359Z,-1.14
2017-01-17T08:11:24.131Z,-1.09
2017-01-17T08:12:24.580Z,-1.11
2017-01-17T08:13:25.144Z,-1.08
2017-01-17T08:14:25.262Z,-1.11
2017-01-17T08:15:25.953Z,-1.08
2017-01-17T08:16:25.672Z,-0.97
2017-01-17T08:17:24.799Z,-1.08
2017-01-17T08:18:24.416Z,-1.05
2017-01-17T08:19:24.819Z,-0.99
2017-01-17T08:20:24.794Z,-1.05
2017-01-17T08:21:25.855Z,-1.04
2017-01-17T08:22:25.094Z,-0.99
2017-01-17T08:23:25.228Z,-0.96
2017-01-17T08:24:25.292Z,-0.93
2017-01-17T08:25:24.306Z,-0.96
2017-01-17T08:26:24.588Z,-0.99
2017-01-17T08:27:24.491Z,-0.91
2017-01-17T08:28:25.441Z,-0.9
2017-01-17T08:29:24.577Z,-0.94
2017-01-17T08:30:25.427Z,-0.94
2017-01-17T08:31:25.003Z,-0.9
2017-01-17T08:32:25.094Z,-0.94
2017-01-17T08:33:25.187Z,-0.91
2017-01-17T08:34:25.511Z,-0.89
2017-01-17T08:35:24.434Z,-0.91
2017-01-17T08:36:25.282Z,-0.93
2017-01-17T08:37:25.786Z,-0.86
2017-01-17T08:38:25.253Z,-0.86
2017-01-17T08:39:24.869Z,-0.78
2017-01-17T08:40:25.385Z,-0.8
2017-01-17T08:41:25.456Z,-0.78
2017-01-17T08:42:25.104Z,-0.86
2017-01-17T08:43:25.504Z,-0.8
2017-01-17T08:44:25.800Z,-0.86
2017-01-17T08:45:24.889Z,-0.78
2017-01-17T08:46:25.390Z,-0.77
2017-01-17T08:47:25.210Z,-0.71
2017-01-17T08:48:25.598Z,-0.74
2017-01-17T08:49:25.403Z,-0.7
2017-01-17T08:50:25.608Z,-0.82
2017-01-17T08:51:25.697Z,-0.82
2017-01-17T08:52:24.908Z,-0.64
2017-01-17T08:53:25.101Z,-0.67
2017-01-17T08:54:24.962Z,-0.74
2017-01-17T08:55:25.685Z,-0.57
2017-01-17T08:56:25.289Z,-0.67
2017-01-17T08:57:25.520Z,-0.65
2017-01-17T08:58:25.231Z,-0.67
2017-01-17T08:59:25.569Z,-0.67
2017-01-17T09:00:27.075Z,-0.67
2017-01-17T09:01:25.014Z,-0.67
2017-01-17T09:02:25.132Z,-0.61
2017-01-17T09:03:24.634Z,-0.62
2017-01-17T09:04:25.299Z,-0.44
2017-01-17T09:05:25.171Z,-0.56
2017-01-17T09:06:25.140Z,-0.56
2017-01-17T09:07:25.112Z,-0.56
2017-01-17T09:08:26.117Z,-0.52
2017-01-17T09:09:25.773Z,-0.54
2017-01-17T09:10:25.221Z,-0.59
2017-01-17T09:11:25.143Z,-0.57
2017-01-17T09:12:26.838Z,-0.54
2017-01-17T09:13:25.985Z,-0.44
2017-01-17T09:14:25.614Z,-0.36
2017-01-17T09:15:25.119Z,-0.46
2017-01-17T09:16:25.325Z,-0.34
2017-01-17T09:17:25.532Z,-0.35
2017-01-17T09:18:25.818Z,-0.38
2017-01-17T09:19:26.135Z,-0.26
2017-01-17T09:20:26.851Z,-0.36
2017-01-17T09:21:25.795Z,-0.26
2017-01-17T09:22:25.802Z,-0.25
2017-01-17T09:23:26.170Z,-0.32
2017-01-17T09:24:25.926Z,-0.28
2017-01-17T09:25:25.246Z,-0.18
2017-01-17T09:26:25.755Z,-0.29
2017-01-17T09:27:25.821Z,-0.34
2017-01-17T09:28:25.758Z,-0.25
2017-01-17T09:29:25.866Z,-0.29
2017-01-17T09:30:25.611Z,-0.28
2017-01-17T09:31:25.659Z,-0.29
2017-01-17T09:32:26.413Z,-0.21
2017-01-17T09:33:25.878Z,-0.32
2017-01-17T09:34:25.948Z,-0.35
2017-01-17T09:35:26.231Z,-0.43
2017-01-17T09:36:26.096Z,-0.38
2017-01-17T09:37:25.845Z,-0.38
2017-01-17T09:38:25.361Z,-0.43
2017-01-17T09:39:25.356Z,-0.31
2017-01-17T09:40:25.805Z,-0.34
2017-01-17T09:41:26.159Z,-0.38
2017-01-17T09:42:26.431Z,-0.28
2017-01-17T09:43:25.281Z,-0.36
2017-01-17T09:44:26.236Z,-0.25
2017-01-17T09:45:25.914Z,-0.25
2017-01-17T09:46:25.463Z,-0.23
2017-01-17T09:47:26.928Z,-0.34
2017-01-17T09:48:25.721Z,-0.34
2017-01-17T09:49:25.982Z,-0.28
2017-01-17T09:50:25.871Z,-0.31
2017-01-17T09:51:25.407Z,-0.25
2017-01-17T09:52:26.125Z,-0.29
2017-01-17T09:53:27.189Z,-0.2
2017-01-17T09:54:26.577Z,-0.29
2017-01-17T09:55:26.038Z,-0.32
2017-01-17T09:56:26.226Z,-0.17
2017-01-17T09:57:26.457Z,-0.2
2017-01-17T09:58:26.521Z,-0.31
2017-01-17T09:59:25.724Z,-0.18
2017-01-17T10:00:25.690Z,-0.14
2017-01-17T10:01:25.821Z,-0.18
2017-01-17T10:02:25.686Z,-0.2
2017-01-17T10:03:25.527Z,-0.13
2017-01-17T10:04:26.245Z,-0.14
2017-01-17T10:05:26.465Z,-0.18
2017-01-17T10:06:26.951Z,-0.2
2017-01-17T10:07:26.303Z,-0.14
2017-01-17T10:08:26.097Z,-0.11
2017-01-17T10:09:26.090Z,-0.07
2017-01-17T10:10:25.865Z,-0.06
2017-01-17T10:11:25.987Z,0.03
2017-01-17T10:12:26.006Z,-0.02
2017-01-17T10:13:25.953Z,0.11
2017-01-17T10:14:26.077Z,0.1
2017-01-17T10:15:26.562Z,0.22
2017-01-17T10:16:27.003Z,0.16
2017-01-17T10:17:25.833Z,0.16
2017-01-17T10:18:25.987Z,0.18
2017-01-17T10:19:26.684Z,0.18
2017-01-17T10:20:26.412Z,0.19
2017-01-17T10:21:26.396Z,0.07
2017-01-17T10:22:27.161Z,0.12
2017-01-17T10:23:27.014Z,0.21
2017-01-17T10:24:27.440Z,0.23
2017-01-17T10:25:26.357Z,0.21
2017-01-17T10:26:26.333Z,0.16
2017-01-17T10:27:27.547Z,0.18
2017-01-17T10:28:27.165Z,0.18
2017-01-17T10:29:27.878Z,0.01
2017-01-17T10:30:26.407Z,-0.11
2017-01-17T10:31:26.014Z,0.04
2017-01-17T10:32:26.195Z,0.1
2017-01-17T10:33:26.149Z,0.18
2017-01-17T10:34:27.033Z,0.21
2017-01-17T10:35:26.460Z,0.25
2017-01-17T10:36:26.809Z,0.18
2017-01-17T10:37:26.910Z,0.11
2017-01-17T10:38:27.069Z,0.07
2017-01-17T10:39:26.399Z,0.07
2017-01-17T10:40:26.605Z,-0.03
2017-01-17T10:41:28.048Z,-0.03
2017-01-17T10:42:27.503Z,-0.08
2017-01-17T10:43:26.150Z,-0.07
2017-01-17T10:44:27.187Z,-0.1
2017-01-17T10:45:26.106Z,-0.08
2017-01-17T10:46:27.257Z,-0.02
2017-01-17T10:47:26.319Z,-0.07
2017-01-17T10:48:26.352Z,0.01
2017-01-17T10:49:25.983Z,0.12
2017-01-17T10:50:27.025Z,0.1
2017-01-17T10:51:27.672Z,0.16
2017-01-17T10:52:27.503Z,0.23
2017-01-17T10:53:27.115Z,0.19
2017-01-17T10:54:26.508Z,0.32
2017-01-17T10:55:26.992Z,0.25
2017-01-17T10:56:26.631Z,0.25
2017-01-17T10:57:26.348Z,0.32
2017-01-17T10:58:27.555Z,0.37
2017-01-17T10:59:26.346Z,0.44
2017-01-17T11:00:26.601Z,0.47
2017-01-17T11:01:26.934Z,0.62
2017-01-17T11:02:27.112Z,0.69
2017-01-17T11:03:26.456Z,0.66
2017-01-17T11:04:26.274Z,0.78
2017-01-17T11:05:26.942Z,0.86
2017-01-17T11:06:27.468Z,0.92
2017-01-17T11:07:26.926Z,1.1
2017-01-17T11:08:26.230Z,1.1
2017-01-17T11:09:27.650Z,1.06
2017-01-17T11:10:26.987Z,0.94
2017-01-17T11:11:26.521Z,1.04
2017-01-17T11:12:27.718Z,0.99
2017-01-17T11:13:27.408Z,1.12
2017-01-17T11:14:28.119Z,0.95
2017-01-17T11:15:26.371Z,0.99
2017-01-17T11:16:27.197Z,1.05
2017-01-17T11:17:28.327Z,1.16
2017-01-17T11:18:26.943Z,1.17
2017-01-17T11:19:26.883Z,1.34
2017-01-17T11:20:26.902Z,1.62
2017-01-17T11:21:27.669Z,1.6
2017-01-17T11:22:27.731Z,1.68
2017-01-17T11:23:27.126Z,1.77
2017-01-17T11:24:27.264Z,1.95
2017-01-17T11:25:27.765Z,1.92
2017-01-17T11:26:27.444Z,1.84
2017-01-17T11:27:27.835Z,1.94
2017-01-17T11:28:27.435Z,2.14
2017-01-17T11:29:27.965Z,2.29
2017-01-17T11:30:27.221Z,2.38
2017-01-17T11:31:27.501Z,2.39
2017-01-17T11:32:26.955Z,2.32
2017-01-17T11:33:27.705Z,2.43
2017-01-17T11:34:27.965Z,2.93
2017-01-17T11:35:28.087Z,3.14
2017-01-17T11:36:27.452Z,3.29
2017-01-17T11:37:27.174Z,3.26
2017-01-17T11:38:28.451Z,3.22
2017-01-17T11:39:26.689Z,3.32
2017-01-17T11:40:27.710Z,3.36
2017-01-17T11:41:27.688Z,3.31
2017-01-17T11:42:27.355Z,3.56
2017-01-17T11:43:26.968Z,3.7
2017-01-17T11:44:27.108Z,3.95
2017-01-17T11:45:27.495Z,3.8
2017-01-17T11:46:27.854Z,3.6
2017-01-17T11:47:27.372Z,3.8
2017-01-17T11:48:27.400Z,3.92
2017-01-17T11:49:27.282Z,4.3
2017-01-17T11:50:28.586Z,4.44
2017-01-17T11:51:27.445Z,4.44
2017-01-17T11:52:27.081Z,4.22
2017-01-17T11:53:27.919Z,4.28
2017-01-17T11:54:27.614Z,4.1
2017-01-17T11:55:27.167Z,4.16
2017-01-17T11:56:27.156Z,3.81
2017-01-17T11:57:27.651Z,3.73
2017-01-17T11:58:28.525Z,3.56
2017-01-17T11:59:27.737Z,3.26
2017-01-17T12:00:27.056Z,3.18
2017-01-17T12:01:27.484Z,3.05
2017-01-17T12:02:27.702Z,3.08
2017-01-17T12:03:27.265Z,2.98
2017-01-17T12:04:27.865Z,2.97
2017-01-17T12:05:27.579Z,2.5
2017-01-17T12:06:27.571Z,2.31
2017-01-17T12:07:27.602Z,2.15
2017-01-17T12:08:27.607Z,1.92
2017-01-17T12:09:27.573Z,1.76
2017-01-17T12:10:28.200Z,1.6
2017-01-17T12:11:27.190Z,1.7
2017-01-17T12:12:28.247Z,1.7
2017-01-17T12:13:28.410Z,1.55
2017-01-17T12:14:27.508Z,1.49
2017-01-17T12:15:27.823Z,1.53
2017-01-17T12:16:28.629Z,1.48
2017-01-17T12:17:27.536Z,1.56
2017-01-17T12:18:27.457Z,1.4
2017-01-17T12:19:27.408Z,1.41
2017-01-17T12:20:28.769Z,1.49
2017-01-17T12:21:27.584Z,1.48
2017-01-17T12:22:28.462Z,1.45
2017-01-17T12:23:27.319Z,1.45
2017-01-17T12:24:28.617Z,1.73
2017-01-17T12:25:29.320Z,2.17
2017-01-17T12:26:28.670Z,2.53
2017-01-17T12:27:28.541Z,3.11
2017-01-17T12:28:28.394Z,3.14
2017-01-17T12:29:27.845Z,3.21
2017-01-17T12:30:28.286Z,3.08
2017-01-17T12:31:28.713Z,3.26
2017-01-17T12:32:28.419Z,3.16
2017-01-17T12:33:27.929Z,3.11
2017-01-17T12:34:27.887Z,3.26
2017-01-17T12:35:29.468Z,3.23
2017-01-17T12:36:28.659Z,2.97
2017-01-17T12:37:28.623Z,3.01
2017-01-17T12:38:28.730Z,2.87
2017-01-17T12:39:28.101Z,2.89
2017-01-17T12:40:28.824Z,2.82
2017-01-17T12:41:28.123Z,2.74
2017-01-17T12:42:28.403Z,2.71
2017-01-17T12:43:29.027Z,2.47
2017-01-17T12:44:28.400Z,2.44
2017-01-17T12:45:28.245Z,2.42
2017-01-17T12:46:28.679Z,2.35
2017-01-17T12:47:29.008Z,2.25
2017-01-17T12:48:29.433Z,2.07
2017-01-17T12:49:28.214Z,2.11
2017-01-17T12:50:27.837Z,2.14
2017-01-17T12:51:28.683Z,2.04
2017-01-17T12:52:28.101Z,1.99
2017-01-17T12:53:28.720Z,1.84
2017-01-17T12:54:28.504Z,1.85
2017-01-17T12:55:28.369Z,1.77
2017-01-17T12:56:29.103Z,1.77
2017-01-17T12:57:28.529Z,1.73
2017-01-17T12:58:28.854Z,1.55
2017-01-17T12:59:29.018Z,1.32
2017-01-17T13:00:29.400Z,1.34